createdAt,value
2022-12-03T00:02:31.213Z,33.53
2022-12-03T00:05:34.180Z,34.63
2022-12-03T00:08:36.801Z,29.42
2022-12-03T00:11:39.763Z,32.50
2022-12-03T00:14:52.290Z,31.15
2022-12-03T00:17:55.147Z,29.55
2022-12-03T00:20:57.991Z,31.35
2022-12-03T00:24:00.763Z,32.77
2022-12-03T00:27:03.727Z,31.33
2022-12-03T00:30:08.044Z,30.50
2022-12-03T00:33:10.759Z,30.67
2022-12-03T00:36:13.451Z,29.45
2022-12-03T00:39:16.321Z,28.85
2022-12-03T00:42:19.125Z,29.55
2022-12-03T00:45:21.811Z,28.15
2022-12-03T00:48:24.543Z,27.10
2022-12-03T00:51:27.777Z,27.05
2022-12-03T00:54:32.314Z,26.07
2022-12-03T00:57:35.175Z,26.92
2022-12-03T01:00:38.114Z,25.52
2022-12-03T01:03:40.715Z,26.43
2022-12-03T01:06:43.972Z,28.88
2022-12-03T01:09:46.478Z,27.80
2022-12-03T01:12:49.241Z,26.52
2022-12-03T01:15:51.874Z,23.55
2022-12-03T01:18:54.966Z,24.67
2022-12-03T01:21:57.537Z,26.75
2022-12-03T01:25:00.371Z,26.73
2022-12-03T01:28:03.008Z,26.33
2022-12-03T01:31:24.281Z,23.95
2022-12-03T01:34:26.940Z,25.47
2022-12-03T01:37:29.956Z,24.10
2022-12-03T01:40:32.720Z,23.63
2022-12-03T01:43:36.016Z,24.02
2022-12-03T01:46:40.747Z,20.67
2022-12-03T01:50:01.772Z,21.90
2022-12-03T01:53:05.077Z,19.75
2022-12-03T01:56:09.591Z,20.13
2022-12-03T01:59:18.509Z,22.35
2022-12-03T02:02:26.219Z,20.05
2022-12-03T02:05:31.273Z,19.20
2022-12-03T02:08:36.789Z,20.77
2022-12-03T02:11:44.226Z,18.75
2022-12-03T02:14:47.871Z,19.08
2022-12-03T02:17:53.267Z,19.27
2022-12-03T02:21:19.224Z,19.23
2022-12-03T02:24:44.718Z,18.17
2022-12-03T02:27:48.647Z,17.40
2022-12-03T02:30:51.554Z,18.95
2022-12-03T02:33:54.373Z,19.35
2022-12-03T02:36:56.899Z,19.37
2022-12-03T02:40:07.046Z,20.95
2022-12-03T02:43:10.635Z,19.30
2022-12-03T02:46:13.606Z,19.88
2022-12-03T02:49:16.310Z,18.95
2022-12-03T02:52:19.700Z,19.25
2022-12-03T02:55:23.487Z,18.92
2022-12-03T02:58:29.252Z,18.47
2022-12-03T03:01:32.711Z,19.45
2022-12-03T03:04:35.779Z,18.77
2022-12-03T03:07:39.656Z,17.97
2022-12-03T03:10:43.669Z,17.50
2022-12-03T03:13:46.413Z,17.35
2022-12-03T03:16:56.321Z,17.00
2022-12-03T03:19:59.231Z,17.40
2022-12-03T03:23:20.599Z,16.70
2022-12-03T03:26:23.264Z,17.77
2022-12-03T03:29:26.412Z,16.23
2022-12-03T03:32:30.476Z,18.63
2022-12-03T03:35:33.691Z,16.10
2022-12-03T03:38:37.053Z,16.60
2022-12-03T03:41:44.827Z,17.00
2022-12-03T03:44:48.216Z,18.00
2022-12-03T03:47:51.122Z,16.42
2022-12-03T03:50:53.962Z,16.05
2022-12-03T03:53:56.858Z,18.65
2022-12-03T03:56:59.986Z,17.02
2022-12-03T04:00:03.025Z,15.47
2022-12-03T04:03:10.098Z,16.77
2022-12-03T04:06:13.106Z,16.83
2022-12-03T04:09:15.583Z,16.50
2022-12-03T04:12:37.071Z,15.10
2022-12-03T04:15:39.569Z,16.30
2022-12-03T04:18:45.481Z,15.98
2022-12-03T04:22:26.488Z,15.88
2022-12-03T04:25:47.923Z,16.08
2022-12-03T04:28:50.781Z,16.52
2022-12-03T04:32:12.408Z,17.23
2022-12-03T04:35:34.040Z,16.20
2022-12-03T04:38:36.975Z,16.15
2022-12-03T04:41:39.781Z,17.03
2022-12-03T04:44:42.826Z,17.15
2022-12-03T04:47:45.542Z,16.40
2022-12-03T04:50:48.666Z,15.50
2022-12-03T04:53:51.343Z,17.38
2022-12-03T04:56:54.140Z,17.33
2022-12-03T04:59:57.043Z,17.77
2022-12-03T05:02:59.873Z,15.57
2022-12-03T05:06:02.662Z,15.25
2022-12-03T05:09:05.579Z,14.68
2022-12-03T05:12:07.978Z,16.57
2022-12-03T05:15:11.762Z,16.58
2022-12-03T05:18:14.237Z,15.20
2022-12-03T05:21:17.293Z,18.00
2022-12-03T05:24:19.782Z,17.00
2022-12-03T05:27:24.185Z,19.10
2022-12-03T05:30:26.983Z,19.60
2022-12-03T05:33:29.907Z,20.50
2022-12-03T05:36:32.337Z,20.90
2022-12-03T05:39:35.158Z,17.95
2022-12-03T05:42:56.518Z,18.83
2022-12-03T05:45:59.642Z,18.42
2022-12-03T05:49:02.290Z,18.45
2022-12-03T05:52:05.544Z,18.90
2022-12-03T05:55:08.791Z,19.63
2022-12-03T05:58:12.427Z,18.98
2022-12-03T06:01:15.100Z,19.50
2022-12-03T06:04:17.872Z,18.10
2022-12-03T06:07:20.310Z,19.27
2022-12-03T06:10:25.456Z,25.10
2022-12-03T06:13:27.835Z,18.63
2022-12-03T06:16:30.904Z,16.08
2022-12-03T06:19:33.847Z,21.20
2022-12-03T06:22:36.858Z,21.27
2022-12-03T06:25:39.611Z,24.25
2022-12-03T06:28:46.607Z,20.67
2022-12-03T06:31:49.300Z,18.02
2022-12-03T06:34:52.354Z,20.43
2022-12-03T06:37:55.297Z,20.98
2022-12-03T06:40:58.363Z,20.42
2022-12-03T06:44:00.825Z,23.60
2022-12-03T06:47:04.079Z,24.20
2022-12-03T06:50:08.424Z,30.10
2022-12-03T06:53:11.315Z,35.22
2022-12-03T06:56:14.127Z,35.10
2022-12-03T06:59:16.783Z,36.90
2022-12-03T07:02:20.576Z,36.15
2022-12-03T07:05:23.194Z,35.77
2022-12-03T07:08:25.914Z,35.33
2022-12-03T07:11:31.818Z,33.15
2022-12-03T07:14:34.279Z,40.63
2022-12-03T07:17:36.908Z,39.50
2022-12-03T07:20:39.512Z,43.22
2022-12-03T07:23:42.295Z,47.50
2022-12-03T07:26:44.985Z,46.70
2022-12-03T07:29:47.687Z,47.10
2022-12-03T07:32:50.395Z,55.00
2022-12-03T07:35:53.183Z,52.93
2022-12-03T07:38:55.801Z,45.53
2022-12-03T07:41:58.935Z,44.67
2022-12-03T07:45:01.439Z,40.67
2022-12-03T07:48:04.317Z,39.75
2022-12-03T07:51:06.900Z,34.42
2022-12-03T07:54:09.909Z,30.88
2022-12-03T07:57:12.478Z,30.95
2022-12-03T08:00:15.811Z,27.83
2022-12-03T08:03:18.577Z,27.45
2022-12-03T08:06:21.812Z,31.40
2022-12-03T08:09:24.599Z,31.55
2022-12-03T08:12:40.514Z,31.42
2022-12-03T08:15:43.430Z,32.97
2022-12-03T08:18:47.505Z,34.83
2022-12-03T08:21:50.261Z,35.63
2022-12-03T08:24:54.418Z,36.20
2022-12-03T08:28:16.357Z,35.83
2022-12-03T08:31:32.908Z,34.15
2022-12-03T08:34:42.311Z,37.05
2022-12-03T08:37:45.011Z,30.10
2022-12-03T08:40:50.064Z,30.08
2022-12-03T08:43:52.783Z,25.02
2022-12-03T08:47:19.816Z,23.50
2022-12-03T08:50:32.008Z,23.85
2022-12-03T08:53:41.601Z,22.55
2022-12-03T08:56:45.119Z,20.98
2022-12-03T08:59:47.950Z,17.52
2022-12-03T09:02:53.072Z,18.80
2022-12-03T09:05:55.756Z,19.20
2022-12-03T09:09:01.186Z,18.40
2022-12-03T09:12:07.882Z,17.33
2022-12-03T09:15:11.163Z,18.83
2022-12-03T09:18:14.658Z,18.53
2022-12-03T09:21:17.700Z,20.48
2022-12-03T09:24:20.637Z,18.38
2022-12-03T09:27:23.680Z,13.98
2022-12-03T09:30:26.132Z,15.77
2022-12-03T09:33:29.612Z,14.68
2022-12-03T09:36:32.428Z,14.45
2022-12-03T09:39:35.619Z,14.37
2022-12-03T09:42:38.454Z,11.30
2022-12-03T09:45:41.580Z,11.20
2022-12-03T09:48:44.143Z,14.63
2022-12-03T09:51:46.944Z,11.32
2022-12-03T09:54:49.847Z,12.23
2022-12-03T09:57:54.300Z,12.85
2022-12-03T10:00:57.339Z,13.85
2022-12-03T10:04:00.097Z,13.40
2022-12-03T10:07:02.767Z,12.32
2022-12-03T10:10:08.017Z,12.40
2022-12-03T10:13:26.219Z,11.93
2022-12-03T10:16:30.610Z,12.23
2022-12-03T10:19:35.806Z,13.03
2022-12-03T10:22:38.785Z,12.93
2022-12-03T10:26:04.164Z,11.88
2022-12-03T10:29:34.915Z,13.02
2022-12-03T10:32:49.055Z,12.57
2022-12-03T10:35:51.665Z,13.18
2022-12-03T10:39:15.269Z,14.05
2022-12-03T10:42:19.451Z,12.73
2022-12-03T10:45:23.147Z,13.30
2022-12-03T10:48:27.685Z,13.50
2022-12-03T10:51:30.982Z,12.53
2022-12-03T10:54:35.574Z,13.05
2022-12-03T10:57:42.376Z,14.32
2022-12-03T11:00:48.547Z,12.25
2022-12-03T11:03:52.198Z,12.88
2022-12-03T11:06:55.623Z,12.57
2022-12-03T11:10:00.193Z,12.77
2022-12-03T11:13:44.408Z,13.93
2022-12-03T11:16:46.756Z,12.18
2022-12-03T11:19:50.107Z,11.63
2022-12-03T11:22:54.025Z,11.30
2022-12-03T11:25:56.699Z,11.18
2022-12-03T11:28:59.827Z,11.95
2022-12-03T11:32:02.469Z,12.30
2022-12-03T11:35:23.161Z,11.27
2022-12-03T11:38:55.540Z,12.38
2022-12-03T11:42:25.943Z,11.90
2022-12-03T11:45:32.309Z,11.60
2022-12-03T11:48:44.298Z,12.20
2022-12-03T11:51:47.251Z,11.80
2022-12-03T11:54:53.949Z,11.57
2022-12-03T11:58:05.299Z,10.63
2022-12-03T12:01:08.521Z,10.05
2022-12-03T12:04:35.223Z,10.70
2022-12-03T12:07:37.960Z,10.27
2022-12-03T12:10:49.101Z,18.25
2022-12-03T12:13:54.686Z,12.55
2022-12-03T12:16:58.667Z,13.30
2022-12-03T12:20:28.035Z,13.43
2022-12-03T12:23:30.577Z,19.13
2022-12-03T12:26:33.059Z,14.50
2022-12-03T12:29:37.072Z,11.38
2022-12-03T12:33:11.207Z,11.07
2022-12-03T12:36:14.145Z,12.77
2022-12-03T12:39:16.627Z,10.20
2022-12-03T12:42:38.602Z,12.23
2022-12-03T12:45:43.297Z,13.43
2022-12-03T12:48:45.883Z,11.07
2022-12-03T12:51:49.647Z,12.05
2022-12-03T12:54:52.281Z,10.15
2022-12-03T12:58:11.435Z,13.67
2022-12-03T13:01:32.438Z,9.38
2022-12-03T13:04:40.011Z,9.32
2022-12-03T13:07:44.208Z,9.57
2022-12-03T13:10:47.741Z,11.60
2022-12-03T13:13:51.050Z,12.00
2022-12-03T13:16:56.667Z,13.32
2022-12-03T13:20:07.582Z,11.57
2022-12-03T13:23:28.026Z,11.65
2022-12-03T13:26:40.076Z,15.68
2022-12-03T13:29:43.162Z,13.07
2022-12-03T13:32:45.642Z,14.93
2022-12-03T13:35:48.326Z,15.88
2022-12-03T13:38:51.153Z,13.05
2022-12-03T13:42:13.551Z,13.65
2022-12-03T13:45:19.045Z,15.73
2022-12-03T13:48:23.851Z,19.60
2022-12-03T13:51:29.829Z,19.03
2022-12-03T13:54:32.912Z,16.60
2022-12-03T13:57:35.417Z,17.42
2022-12-03T14:00:39.284Z,18.67
2022-12-03T14:03:41.961Z,16.95
2022-12-03T14:06:44.625Z,17.17
2022-12-03T14:09:47.135Z,15.63
2022-12-03T14:12:50.163Z,18.23
2022-12-03T14:15:52.625Z,21.60
2022-12-03T14:18:55.614Z,19.08
2022-12-03T14:22:00.232Z,20.87
2022-12-03T14:25:02.878Z,33.67
2022-12-03T14:28:08.705Z,33.60
2022-12-03T14:31:11.709Z,31.67
2022-12-03T14:34:14.306Z,31.15
2022-12-03T14:37:17.789Z,36.33
2022-12-03T14:40:22.006Z,39.00
2022-12-03T14:43:25.210Z,39.80
2022-12-03T14:46:27.844Z,38.70
2022-12-03T14:49:31.759Z,39.60
2022-12-03T14:52:36.559Z,38.07
2022-12-03T14:55:39.199Z,36.38
2022-12-03T14:58:41.869Z,36.85
2022-12-03T15:01:44.705Z,41.40
2022-12-03T15:04:47.347Z,45.85
2022-12-03T15:07:50.487Z,39.75
2022-12-03T15:10:52.947Z,44.05
2022-12-03T15:13:55.839Z,58.72
2022-12-03T15:16:58.767Z,55.78
2022-12-03T15:20:01.855Z,56.55
2022-12-03T15:23:06.304Z,58.30
2022-12-03T15:26:10.719Z,55.28
2022-12-03T15:29:13.524Z,46.45
2022-12-03T15:32:16.363Z,39.27
2022-12-03T15:35:19.036Z,40.45
2022-12-03T15:38:21.752Z,34.40
2022-12-03T15:41:28.956Z,28.58
2022-12-03T15:44:31.935Z,25.60
2022-12-03T15:47:34.434Z,26.40
2022-12-03T15:50:40.304Z,49.65
2022-12-03T15:53:43.170Z,49.33
2022-12-03T15:56:46.234Z,47.53
2022-12-03T15:59:49.075Z,29.67
2022-12-03T16:02:53.055Z,29.30
2022-12-03T16:05:56.030Z,32.90
2022-12-03T16:08:59.106Z,39.95
2022-12-03T16:12:01.921Z,45.28
2022-12-03T16:15:05.335Z,39.05
2022-12-03T16:18:08.113Z,34.58
2022-12-03T16:21:11.063Z,42.90
2022-12-03T16:24:13.651Z,41.23
2022-12-03T16:27:16.390Z,35.22
2022-12-03T16:30:19.218Z,35.00
2022-12-03T16:33:27.209Z,38.63
2022-12-03T16:36:30.589Z,53.45
2022-12-03T16:39:33.396Z,42.65
2022-12-03T16:42:37.348Z,43.65
2022-12-03T16:45:46.479Z,40.90
2022-12-03T16:48:49.543Z,45.10
2022-12-03T16:51:52.797Z,46.80
2022-12-03T16:54:55.434Z,42.87
2022-12-03T16:57:58.326Z,44.45
2022-12-03T17:01:00.966Z,45.90
2022-12-03T17:04:04.950Z,40.53
2022-12-03T17:07:07.625Z,43.38
2022-12-03T17:10:11.419Z,46.80
2022-12-03T17:13:15.359Z,43.88
2022-12-03T17:16:18.553Z,38.75
2022-12-03T17:19:21.142Z,40.15
2022-12-03T17:22:23.967Z,38.53
2022-12-03T17:25:27.339Z,40.60
2022-12-03T17:28:30.515Z,43.30
2022-12-03T17:31:38.386Z,41.28
2022-12-03T17:34:44.474Z,44.97
2022-12-03T17:37:47.184Z,46.00
2022-12-03T17:40:50.499Z,55.20
2022-12-03T17:43:53.915Z,55.25
2022-12-03T17:46:57.047Z,60.28
2022-12-03T17:49:59.822Z,57.58
2022-12-03T17:53:05.542Z,61.10
2022-12-03T17:56:08.136Z,60.73
2022-12-03T17:59:12.013Z,59.45
2022-12-03T18:02:15.257Z,57.28
2022-12-03T18:05:18.599Z,55.00
2022-12-03T18:08:21.303Z,51.58
2022-12-03T18:11:24.449Z,49.05
2022-12-03T18:14:27.236Z,50.22
2022-12-03T18:17:30.360Z,45.70
2022-12-03T18:20:33.108Z,49.42
2022-12-03T18:23:36.208Z,52.03
2022-12-03T18:26:38.945Z,50.73
2022-12-03T18:29:41.651Z,53.88
2022-12-03T18:32:44.586Z,59.42
2022-12-03T18:35:47.691Z,72.37
2022-12-03T18:38:53.058Z,67.18
2022-12-03T18:41:56.239Z,67.95
2022-12-03T18:44:59.727Z,66.85
2022-12-03T18:48:02.939Z,62.38
2022-12-03T18:51:17.808Z,65.13
2022-12-03T18:54:20.959Z,61.50
2022-12-03T18:57:23.739Z,56.50
2022-12-03T19:00:27.081Z,51.90
2022-12-03T19:03:30.777Z,44.55
2022-12-03T19:06:33.473Z,44.40
2022-12-03T19:09:36.324Z,42.72
2022-12-03T19:12:39.662Z,40.33
2022-12-03T19:15:42.527Z,38.70
2022-12-03T19:18:46.252Z,40.88
2022-12-03T19:21:48.790Z,36.85
2022-12-03T19:24:52.466Z,35.83
2022-12-03T19:27:57.026Z,36.90
2022-12-03T19:31:02.914Z,36.90
2022-12-03T19:34:05.900Z,37.35
2022-12-03T19:37:08.840Z,38.80
2022-12-03T19:40:12.064Z,40.83
2022-12-03T19:43:15.063Z,45.55
2022-12-03T19:46:20.175Z,48.58
2022-12-03T19:49:24.124Z,47.85
2022-12-03T19:52:27.034Z,51.65
2022-12-03T19:55:30.507Z,50.60
2022-12-03T19:58:33.787Z,49.00
2022-12-03T20:01:40.496Z,46.28
2022-12-03T20:04:43.611Z,41.50
2022-12-03T20:07:46.545Z,41.60
2022-12-03T20:10:50.152Z,40.08
2022-12-03T20:13:55.603Z,39.33
2022-12-03T20:16:58.892Z,34.60
2022-12-03T20:20:02.447Z,32.38
2022-12-03T20:23:05.313Z,32.30
2022-12-03T20:26:17.115Z,31.48
2022-12-03T20:29:22.096Z,31.13
2022-12-03T20:32:25.151Z,31.05
2022-12-03T20:35:28.154Z,31.95
2022-12-03T20:38:32.452Z,33.50
2022-12-03T20:41:36.097Z,29.38
2022-12-03T20:44:39.256Z,32.50
2022-12-03T20:47:42.088Z,31.45
2022-12-03T20:50:45.084Z,33.65
2022-12-03T20:53:48.035Z,35.20
2022-12-03T20:56:51.264Z,31.50
2022-12-03T20:59:56.977Z,32.07
2022-12-03T21:03:00.138Z,31.90
2022-12-03T21:06:03.144Z,28.23
2022-12-03T21:09:07.382Z,26.77
2022-12-03T21:12:10.129Z,26.48
2022-12-03T21:15:12.807Z,26.08
2022-12-03T21:18:17.015Z,24.88
2022-12-03T21:21:21.117Z,27.45
2022-12-03T21:24:23.867Z,26.63
2022-12-03T21:27:26.792Z,29.63
2022-12-03T21:30:29.864Z,30.13
2022-12-03T21:33:33.444Z,34.17
2022-12-03T21:36:36.630Z,33.03
2022-12-03T21:39:40.595Z,31.60
2022-12-03T21:42:43.253Z,31.55
2022-12-03T21:45:46.491Z,33.60
2022-12-03T21:48:50.117Z,28.05
2022-12-03T21:51:52.783Z,51.40
2022-12-03T21:54:56.002Z,110.95
2022-12-03T21:57:59.116Z,94.22
2022-12-03T22:01:15.649Z,87.17
2022-12-03T22:04:18.775Z,42.92
2022-12-03T22:07:21.411Z,45.88
2022-12-03T22:10:24.361Z,45.80
2022-12-03T22:13:27.096Z,39.58
2022-12-03T22:16:30.365Z,35.35
2022-12-03T22:19:32.882Z,29.15
2022-12-03T22:22:35.762Z,28.30
2022-12-03T22:25:38.188Z,27.48
2022-12-03T22:28:45.314Z,27.65
2022-12-03T22:31:47.945Z,25.13
2022-12-03T22:34:50.727Z,24.90
2022-12-03T22:37:53.611Z,25.85
2022-12-03T22:40:56.755Z,27.00
2022-12-03T22:43:59.443Z,26.48
2022-12-03T22:47:02.391Z,27.00
2022-12-03T22:50:05.563Z,27.33
2022-12-03T22:53:08.509Z,27.90
2022-12-03T22:56:11.356Z,27.30
2022-12-03T22:59:14.263Z,26.60
2022-12-03T23:02:17.066Z,27.07
2022-12-03T23:05:19.821Z,27.00
2022-12-03T23:08:22.709Z,27.33
2022-12-03T23:11:26.853Z,29.63
2022-12-03T23:14:29.681Z,30.95
2022-12-03T23:17:32.751Z,29.98
2022-12-03T23:20:45.258Z,30.55
2022-12-03T23:23:48.025Z,28.35
2022-12-03T23:26:50.595Z,27.15
2022-12-03T23:29:54.019Z,26.95
2022-12-03T23:32:57.147Z,25.33
2022-12-03T23:35:59.770Z,26.88
2022-12-03T23:39:02.831Z,27.15
2022-12-03T23:42:05.540Z,26.07
2022-12-03T23:45:08.572Z,27.65
2022-12-03T23:48:11.447Z,27.75
2022-12-03T23:51:17.115Z,28.85
2022-12-03T23:54:20.055Z,27.35
2022-12-03T23:57:22.503Z,27.33
